sensor_id;sensor_type;location;lat;lon;timestamp;P1;durP1;ratioP1;P2;durP2;ratioP2
739;SDS011;354;42.694;23.336;2022-12-18T00:00:38;12.87;;;11.67;;
739;SDS011;354;42.694;23.336;2022-12-18T00:03:05;11.87;;;10.73;;
739;SDS011;354;42.694;23.336;2022-12-18T00:05:31;12.43;;;11.23;;
739;SDS011;354;42.694;23.336;2022-12-18T00:07:56;12.30;;;11.10;;
739;SDS011;354;42.694;23.336;2022-12-18T00:10:21;12.43;;;11.27;;
739;SDS011;354;42.694;23.336;2022-12-18T00:12:47;12.73;;;11.57;;
739;SDS011;354;42.694;23.336;2022-12-18T00:15:12;11.00;;;10.00;;
739;SDS011;354;42.694;23.336;2022-12-18T00:17:37;12.23;;;11.03;;
739;SDS011;354;42.694;23.336;2022-12-18T00:20:03;12.63;;;11.30;;
739;SDS011;354;42.694;23.336;2022-12-18T00:22:28;13.60;;;12.30;;
739;SDS011;354;42.694;23.336;2022-12-18T00:24:54;13.53;;;12.23;;
739;SDS011;354;42.694;23.336;2022-12-18T00:27:19;13.93;;;12.53;;
739;SDS011;354;42.694;23.336;2022-12-18T00:29:44;14.00;;;12.60;;
739;SDS011;354;42.694;23.336;2022-12-18T00:32:10;12.67;;;11.37;;
739;SDS011;354;42.694;23.336;2022-12-18T00:34:35;11.80;;;10.60;;
739;SDS011;354;42.694;23.336;2022-12-18T00:37:00;13.07;;;11.67;;
739;SDS011;354;42.694;23.336;2022-12-18T00:39:26;13.30;;;11.83;;
739;SDS011;354;42.694;23.336;2022-12-18T00:41:51;13.63;;;12.33;;
739;SDS011;354;42.694;23.336;2022-12-18T00:44:35;13.03;;;11.73;;
739;SDS011;354;42.694;23.336;2022-12-18T00:47:00;13.00;;;11.70;;
739;SDS011;354;42.694;23.336;2022-12-18T00:49:26;13.20;;;12.00;;
739;SDS011;354;42.694;23.336;2022-12-18T00:51:51;13.50;;;12.10;;
739;SDS011;354;42.694;23.336;2022-12-18T00:54:17;12.60;;;11.40;;
739;SDS011;354;42.694;23.336;2022-12-18T00:56:42;11.97;;;10.70;;
739;SDS011;354;42.694;23.336;2022-12-18T00:59:08;12.93;;;10.40;;
739;SDS011;354;42.694;23.336;2022-12-18T01:01:33;13.23;;;11.93;;
739;SDS011;354;42.694;23.336;2022-12-18T01:03:59;12.80;;;11.43;;
739;SDS011;354;42.694;23.336;2022-12-18T01:06:25;12.67;;;11.43;;
739;SDS011;354;42.694;23.336;2022-12-18T01:08:51;12.93;;;11.63;;
739;SDS011;354;42.694;23.336;2022-12-18T01:11:17;12.87;;;11.57;;
739;SDS011;354;42.694;23.336;2022-12-18T01:13:43;14.27;;;12.97;;
739;SDS011;354;42.694;23.336;2022-12-18T01:16:13;13.90;;;12.53;;
739;SDS011;354;42.694;23.336;2022-12-18T01:18:40;11.93;;;10.83;;
739;SDS011;354;42.694;23.336;2022-12-18T01:21:06;13.43;;;12.13;;
739;SDS011;354;42.694;23.336;2022-12-18T01:23:33;14.97;;;13.37;;
739;SDS011;354;42.694;23.336;2022-12-18T01:26:03;14.17;;;12.77;;
739;SDS011;354;42.694;23.336;2022-12-18T01:28:33;16.80;;;15.10;;
739;SDS011;354;42.694;23.336;2022-12-18T01:31:09;14.27;;;12.87;;
739;SDS011;354;42.694;23.336;2022-12-18T01:33:54;14.37;;;12.87;;
739;SDS011;354;42.694;23.336;2022-12-18T01:36:25;14.00;;;12.60;;
739;SDS011;354;42.694;23.336;2022-12-18T01:38:54;15.90;;;14.40;;
739;SDS011;354;42.694;23.336;2022-12-18T01:41:22;15.87;;;14.23;;
739;SDS011;354;42.694;23.336;2022-12-18T01:43:53;12.50;;;11.40;;
739;SDS011;354;42.694;23.336;2022-12-18T01:46:22;13.33;;;11.97;;
739;SDS011;354;42.694;23.336;2022-12-18T01:48:50;15.83;;;14.23;;
739;SDS011;354;42.694;23.336;2022-12-18T01:51:18;14.60;;;13.20;;
739;SDS011;354;42.694;23.336;2022-12-18T01:53:44;16.00;;;14.20;;
739;SDS011;354;42.694;23.336;2022-12-18T01:56:12;11.63;;;10.53;;
739;SDS011;354;42.694;23.336;2022-12-18T02:01:26;15.03;;;13.47;;
739;SDS011;354;42.694;23.336;2022-12-18T02:03:55;13.40;;;12.00;;
739;SDS011;354;42.694;23.336;2022-12-18T02:06:29;14.50;;;13.10;;
739;SDS011;354;42.694;23.336;2022-12-18T02:09:11;14.60;;;13.10;;
739;SDS011;354;42.694;23.336;2022-12-18T02:14:40;13.87;;;12.40;;
739;SDS011;354;42.694;23.336;2022-12-18T02:17:12;13.77;;;12.27;;
739;SDS011;354;42.694;23.336;2022-12-18T02:22:26;12.87;;;11.67;;
739;SDS011;354;42.694;23.336;2022-12-18T02:25:25;14.37;;;12.83;;
739;SDS011;354;42.694;23.336;2022-12-18T02:27:54;11.63;;;10.53;;
739;SDS011;354;42.694;23.336;2022-12-18T02:30:24;13.00;;;11.77;;
739;SDS011;354;42.694;23.336;2022-12-18T02:32:52;14.00;;;12.80;;
739;SDS011;354;42.694;23.336;2022-12-18T02:35:20;13.70;;;12.47;;
739;SDS011;354;42.694;23.336;2022-12-18T02:37:48;12.17;;;11.07;;
739;SDS011;354;42.694;23.336;2022-12-18T02:40:15;12.83;;;11.83;;
739;SDS011;354;42.694;23.336;2022-12-18T02:42:42;13.13;;;11.60;;
739;SDS011;354;42.694;23.336;2022-12-18T02:45:08;12.50;;;11.37;;
739;SDS011;354;42.694;23.336;2022-12-18T02:47:35;13.63;;;12.23;;
739;SDS011;354;42.694;23.336;2022-12-18T02:50:13;12.87;;;11.67;;
739;SDS011;354;42.694;23.336;2022-12-18T02:59:07;15.73;;;12.03;;
739;SDS011;354;42.694;23.336;2022-12-18T03:01:35;12.97;;;11.67;;
739;SDS011;354;42.694;23.336;2022-12-18T03:04:09;14.37;;;12.87;;
739;SDS011;354;42.694;23.336;2022-12-18T03:06:41;11.83;;;10.83;;
739;SDS011;354;42.694;23.336;2022-12-18T03:09:13;15.10;;;13.60;;
739;SDS011;354;42.694;23.336;2022-12-18T03:11:44;13.43;;;12.07;;
739;SDS011;354;42.694;23.336;2022-12-18T03:14:38;13.53;;;12.23;;
739;SDS011;354;42.694;23.336;2022-12-18T03:17:05;14.53;;;13.30;;
739;SDS011;354;42.694;23.336;2022-12-18T03:19:35;14.03;;;12.63;;
739;SDS011;354;42.694;23.336;2022-12-18T03:22:04;14.80;;;13.13;;
739;SDS011;354;42.694;23.336;2022-12-18T03:24:32;13.30;;;12.00;;
739;SDS011;354;42.694;23.336;2022-12-18T03:27:00;14.13;;;12.73;;
739;SDS011;354;42.694;23.336;2022-12-18T03:29:31;15.13;;;13.70;;
739;SDS011;354;42.694;23.336;2022-12-18T03:32:11;12.93;;;11.63;;
739;SDS011;354;42.694;23.336;2022-12-18T03:34:41;13.70;;;12.27;;
739;SDS011;354;42.694;23.336;2022-12-18T03:37:09;14.40;;;13.00;;
739;SDS011;354;42.694;23.336;2022-12-18T03:39:34;13.43;;;12.10;;
739;SDS011;354;42.694;23.336;2022-12-18T03:44:57;14.50;;;12.20;;
739;SDS011;354;42.694;23.336;2022-12-18T03:47:29;13.57;;;11.80;;
739;SDS011;354;42.694;23.336;2022-12-18T03:50:07;14.97;;;13.47;;
739;SDS011;354;42.694;23.336;2022-12-18T03:52:36;12.13;;;10.93;;
739;SDS011;354;42.694;23.336;2022-12-18T03:55:35;12.10;;;10.90;;
739;SDS011;354;42.694;23.336;2022-12-18T03:58:01;12.30;;;11.00;;
739;SDS011;354;42.694;23.336;2022-12-18T04:00:29;14.67;;;13.17;;
739;SDS011;354;42.694;23.336;2022-12-18T04:02:56;11.70;;;10.50;;
739;SDS011;354;42.694;23.336;2022-12-18T04:05:25;12.83;;;11.53;;
739;SDS011;354;42.694;23.336;2022-12-18T04:07:52;13.27;;;11.23;;
739;SDS011;354;42.694;23.336;2022-12-18T04:10:19;13.17;;;11.87;;
739;SDS011;354;42.694;23.336;2022-12-18T04:12:44;13.10;;;11.80;;
739;SDS011;354;42.694;23.336;2022-12-18T04:15:10;13.30;;;11.53;;
739;SDS011;354;42.694;23.336;2022-12-18T04:17:36;13.30;;;11.83;;
739;SDS011;354;42.694;23.336;2022-12-18T04:20:02;14.33;;;12.83;;
739;SDS011;354;42.694;23.336;2022-12-18T04:22:28;16.65;;;14.32;;
739;SDS011;354;42.694;23.336;2022-12-18T04:24:53;15.27;;;13.83;;
739;SDS011;354;42.694;23.336;2022-12-18T04:27:19;16.03;;;14.43;;
739;SDS011;354;42.694;23.336;2022-12-18T04:29:44;13.57;;;12.23;;
739;SDS011;354;42.694;23.336;2022-12-18T04:32:10;15.40;;;13.93;;
739;SDS011;354;42.694;23.336;2022-12-18T04:34:35;15.33;;;13.73;;
739;SDS011;354;42.694;23.336;2022-12-18T04:37:00;14.37;;;12.77;;
739;SDS011;354;42.694;23.336;2022-12-18T04:39:26;15.77;;;12.43;;
739;SDS011;354;42.694;23.336;2022-12-18T04:41:51;14.53;;;12.80;;
739;SDS011;354;42.694;23.336;2022-12-18T04:44:16;16.43;;;14.83;;
739;SDS011;354;42.694;23.336;2022-12-18T04:46:42;17.33;;;14.10;;
739;SDS011;354;42.694;23.336;2022-12-18T04:49:07;17.43;;;14.43;;
739;SDS011;354;42.694;23.336;2022-12-18T04:51:35;16.43;;;14.80;;
739;SDS011;354;42.694;23.336;2022-12-18T04:54:00;16.80;;;13.97;;
739;SDS011;354;42.694;23.336;2022-12-18T04:56:26;17.13;;;14.80;;
739;SDS011;354;42.694;23.336;2022-12-18T04:58:51;15.50;;;13.07;;
739;SDS011;354;42.694;23.336;2022-12-18T05:01:17;16.13;;;14.37;;
739;SDS011;354;42.694;23.336;2022-12-18T05:03:43;16.40;;;13.77;;
739;SDS011;354;42.694;23.336;2022-12-18T05:06:08;15.90;;;13.20;;
739;SDS011;354;42.694;23.336;2022-12-18T05:08:34;18.17;;;15.13;;
739;SDS011;354;42.694;23.336;2022-12-18T05:11:07;17.23;;;14.70;;
739;SDS011;354;42.694;23.336;2022-12-18T05:13:34;18.73;;;15.33;;
739;SDS011;354;42.694;23.336;2022-12-18T05:16:01;19.43;;;16.23;;
739;SDS011;354;42.694;23.336;2022-12-18T05:18:27;20.07;;;16.40;;
739;SDS011;354;42.694;23.336;2022-12-18T05:20:53;20.13;;;15.83;;
739;SDS011;354;42.694;23.336;2022-12-18T05:23:19;20.40;;;16.93;;
739;SDS011;354;42.694;23.336;2022-12-18T05:25:59;22.67;;;14.97;;
739;SDS011;354;42.694;23.336;2022-12-18T05:28:27;20.47;;;16.60;;
739;SDS011;354;42.694;23.336;2022-12-18T05:30:54;19.10;;;15.70;;
739;SDS011;354;42.694;23.336;2022-12-18T05:33:22;19.37;;;15.33;;
739;SDS011;354;42.694;23.336;2022-12-18T05:35:55;18.53;;;14.47;;
739;SDS011;354;42.694;23.336;2022-12-18T05:38:22;18.03;;;14.27;;
739;SDS011;354;42.694;23.336;2022-12-18T05:40:49;16.50;;;14.13;;
739;SDS011;354;42.694;23.336;2022-12-18T05:43:15;16.33;;;13.27;;
739;SDS011;354;42.694;23.336;2022-12-18T05:45:42;17.33;;;14.20;;
739;SDS011;354;42.694;23.336;2022-12-18T05:48:07;17.70;;;15.07;;
739;SDS011;354;42.694;23.336;2022-12-18T05:50:36;15.03;;;13.27;;
739;SDS011;354;42.694;23.336;2022-12-18T05:53:03;19.97;;;15.70;;
739;SDS011;354;42.694;23.336;2022-12-18T05:55:37;21.53;;;15.40;;
739;SDS011;354;42.694;23.336;2022-12-18T05:58:04;12.97;;;11.00;;
739;SDS011;354;42.694;23.336;2022-12-18T06:00:31;19.10;;;15.17;;
739;SDS011;354;42.694;23.336;2022-12-18T06:02:57;20.77;;;16.90;;
739;SDS011;354;42.694;23.336;2022-12-18T06:05:23;18.03;;;14.03;;
739;SDS011;354;42.694;23.336;2022-12-18T06:07:48;18.00;;;16.07;;
739;SDS011;354;42.694;23.336;2022-12-18T06:10:14;16.97;;;14.13;;
739;SDS011;354;42.694;23.336;2022-12-18T06:12:39;18.10;;;15.30;;
739;SDS011;354;42.694;23.336;2022-12-18T06:15:04;18.03;;;14.80;;
739;SDS011;354;42.694;23.336;2022-12-18T06:17:31;18.80;;;16.53;;
739;SDS011;354;42.694;23.336;2022-12-18T06:19:57;22.17;;;17.00;;
739;SDS011;354;42.694;23.336;2022-12-18T06:22:22;20.17;;;17.30;;
739;SDS011;354;42.694;23.336;2022-12-18T06:24:48;20.13;;;15.37;;
739;SDS011;354;42.694;23.336;2022-12-18T06:27:13;19.40;;;16.07;;
739;SDS011;354;42.694;23.336;2022-12-18T06:29:39;22.53;;;15.50;;
739;SDS011;354;42.694;23.336;2022-12-18T06:32:04;20.90;;;16.90;;
739;SDS011;354;42.694;23.336;2022-12-18T06:34:30;21.07;;;16.47;;
739;SDS011;354;42.694;23.336;2022-12-18T06:36:55;21.03;;;14.50;;
739;SDS011;354;42.694;23.336;2022-12-18T06:39:20;20.63;;;15.73;;
739;SDS011;354;42.694;23.336;2022-12-18T06:41:45;20.00;;;15.63;;
739;SDS011;354;42.694;23.336;2022-12-18T06:44:11;17.23;;;14.43;;
739;SDS011;354;42.694;23.336;2022-12-18T06:46:36;23.27;;;17.43;;
739;SDS011;354;42.694;23.336;2022-12-18T06:49:02;21.07;;;16.17;;
739;SDS011;354;42.694;23.336;2022-12-18T06:51:28;15.47;;;12.97;;
739;SDS011;354;42.694;23.336;2022-12-18T06:53:54;18.60;;;15.07;;
739;SDS011;354;42.694;23.336;2022-12-18T06:56:19;19.33;;;15.77;;
739;SDS011;354;42.694;23.336;2022-12-18T06:58:44;16.27;;;13.60;;
739;SDS011;354;42.694;23.336;2022-12-18T07:01:10;17.80;;;14.07;;
739;SDS011;354;42.694;23.336;2022-12-18T07:03:37;18.53;;;14.47;;
739;SDS011;354;42.694;23.336;2022-12-18T07:06:04;17.17;;;13.20;;
739;SDS011;354;42.694;23.336;2022-12-18T07:08:30;19.70;;;15.50;;
739;SDS011;354;42.694;23.336;2022-12-18T07:10:56;21.07;;;15.83;;
739;SDS011;354;42.694;23.336;2022-12-18T07:13:22;20.00;;;16.03;;
739;SDS011;354;42.694;23.336;2022-12-18T07:15:48;18.40;;;14.23;;
739;SDS011;354;42.694;23.336;2022-12-18T07:18:13;21.23;;;16.30;;
739;SDS011;354;42.694;23.336;2022-12-18T07:20:38;23.10;;;16.50;;
739;SDS011;354;42.694;23.336;2022-12-18T07:23:04;23.17;;;15.73;;
739;SDS011;354;42.694;23.336;2022-12-18T07:25:30;23.63;;;16.23;;
739;SDS011;354;42.694;23.336;2022-12-18T07:27:59;21.57;;;17.50;;
739;SDS011;354;42.694;23.336;2022-12-18T07:30:24;24.70;;;17.60;;
739;SDS011;354;42.694;23.336;2022-12-18T07:32:50;22.10;;;15.00;;
739;SDS011;354;42.694;23.336;2022-12-18T07:35:15;20.23;;;16.30;;
739;SDS011;354;42.694;23.336;2022-12-18T07:37:41;22.93;;;16.90;;
739;SDS011;354;42.694;23.336;2022-12-18T07:40:06;23.77;;;17.10;;
739;SDS011;354;42.694;23.336;2022-12-18T07:42:32;21.67;;;17.43;;
739;SDS011;354;42.694;23.336;2022-12-18T07:44:58;24.87;;;18.37;;
739;SDS011;354;42.694;23.336;2022-12-18T07:47:24;24.13;;;18.20;;
739;SDS011;354;42.694;23.336;2022-12-18T07:49:50;21.87;;;17.63;;
739;SDS011;354;42.694;23.336;2022-12-18T07:52:15;22.37;;;15.63;;
739;SDS011;354;42.694;23.336;2022-12-18T07:54:41;22.10;;;18.03;;
739;SDS011;354;42.694;23.336;2022-12-18T07:57:07;23.53;;;18.57;;
739;SDS011;354;42.694;23.336;2022-12-18T07:59:32;23.80;;;17.37;;
739;SDS011;354;42.694;23.336;2022-12-18T08:01:58;22.07;;;16.03;;
739;SDS011;354;42.694;23.336;2022-12-18T08:04:23;27.43;;;18.27;;
739;SDS011;354;42.694;23.336;2022-12-18T08:06:49;31.00;;;21.50;;
739;SDS011;354;42.694;23.336;2022-12-18T08:09:15;27.27;;;20.97;;
739;SDS011;354;42.694;23.336;2022-12-18T08:11:40;27.77;;;21.53;;
739;SDS011;354;42.694;23.336;2022-12-18T08:14:05;24.33;;;17.73;;
739;SDS011;354;42.694;23.336;2022-12-18T08:16:31;23.90;;;19.10;;
739;SDS011;354;42.694;23.336;2022-12-18T08:18:56;23.20;;;18.00;;
739;SDS011;354;42.694;23.336;2022-12-18T08:21:31;25.07;;;18.67;;
739;SDS011;354;42.694;23.336;2022-12-18T08:23:57;25.40;;;18.43;;
739;SDS011;354;42.694;23.336;2022-12-18T08:26:25;23.50;;;18.33;;
739;SDS011;354;42.694;23.336;2022-12-18T08:28:53;25.27;;;20.40;;
739;SDS011;354;42.694;23.336;2022-12-18T08:31:20;23.63;;;17.17;;
739;SDS011;354;42.694;23.336;2022-12-18T08:33:47;26.13;;;17.67;;
739;SDS011;354;42.694;23.336;2022-12-18T08:36:14;26.17;;;17.33;;
739;SDS011;354;42.694;23.336;2022-12-18T08:38:39;26.13;;;18.20;;
739;SDS011;354;42.694;23.336;2022-12-18T08:41:06;24.27;;;18.33;;
739;SDS011;354;42.694;23.336;2022-12-18T08:43:32;24.40;;;17.50;;
739;SDS011;354;42.694;23.336;2022-12-18T08:46:17;21.67;;;16.87;;
739;SDS011;354;42.694;23.336;2022-12-18T08:48:44;22.90;;;18.03;;
739;SDS011;354;42.694;23.336;2022-12-18T08:51:10;24.37;;;17.83;;
739;SDS011;354;42.694;23.336;2022-12-18T08:53:36;24.27;;;18.37;;
739;SDS011;354;42.694;23.336;2022-12-18T08:56:02;22.93;;;16.90;;
739;SDS011;354;42.694;23.336;2022-12-18T08:58:28;22.63;;;17.60;;
739;SDS011;354;42.694;23.336;2022-12-18T09:00:57;24.50;;;17.57;;
739;SDS011;354;42.694;23.336;2022-12-18T09:03:25;21.23;;;16.87;;
739;SDS011;354;42.694;23.336;2022-12-18T09:05:50;23.60;;;17.27;;
739;SDS011;354;42.694;23.336;2022-12-18T09:08:15;22.90;;;15.87;;
739;SDS011;354;42.694;23.336;2022-12-18T09:10:42;19.83;;;15.33;;
739;SDS011;354;42.694;23.336;2022-12-18T09:13:09;22.20;;;17.20;;
739;SDS011;354;42.694;23.336;2022-12-18T09:15:39;21.43;;;15.37;;
739;SDS011;354;42.694;23.336;2022-12-18T09:18:06;22.77;;;15.77;;
739;SDS011;354;42.694;23.336;2022-12-18T09:20:32;20.93;;;16.90;;
739;SDS011;354;42.694;23.336;2022-12-18T09:22:57;24.57;;;18.63;;
739;SDS011;354;42.694;23.336;2022-12-18T09:25:22;21.50;;;14.97;;
739;SDS011;354;42.694;23.336;2022-12-18T09:27:48;19.03;;;14.50;;
739;SDS011;354;42.694;23.336;2022-12-18T09:30:13;20.17;;;14.87;;
739;SDS011;354;42.694;23.336;2022-12-18T09:32:38;19.33;;;15.20;;
739;SDS011;354;42.694;23.336;2022-12-18T09:35:04;19.53;;;15.37;;
739;SDS011;354;42.694;23.336;2022-12-18T09:37:30;21.03;;;16.23;;
739;SDS011;354;42.694;23.336;2022-12-18T09:39:55;31.43;;;23.30;;
739;SDS011;354;42.694;23.336;2022-12-18T09:42:21;21.93;;;15.60;;
739;SDS011;354;42.694;23.336;2022-12-18T09:44:56;20.43;;;15.77;;
739;SDS011;354;42.694;23.336;2022-12-18T09:50:01;22.53;;;14.27;;
739;SDS011;354;42.694;23.336;2022-12-18T09:52:42;21.27;;;14.40;;
739;SDS011;354;42.694;23.336;2022-12-18T09:55:25;19.47;;;15.70;;
739;SDS011;354;42.694;23.336;2022-12-18T09:57:55;18.07;;;13.17;;
739;SDS011;354;42.694;23.336;2022-12-18T10:00:26;24.13;;;17.03;;
739;SDS011;354;42.694;23.336;2022-12-18T10:02:52;15.63;;;12.60;;
739;SDS011;354;42.694;23.336;2022-12-18T10:05:30;20.00;;;15.30;;
739;SDS011;354;42.694;23.336;2022-12-18T10:21:45;18.77;;;13.70;;
739;SDS011;354;42.694;23.336;2022-12-18T10:24:30;17.93;;;15.37;;
739;SDS011;354;42.694;23.336;2022-12-18T10:27:12;17.03;;;13.93;;
739;SDS011;354;42.694;23.336;2022-12-18T10:29:40;18.40;;;15.33;;
739;SDS011;354;42.694;23.336;2022-12-18T10:32:08;18.30;;;15.23;;
739;SDS011;354;42.694;23.336;2022-12-18T10:34:46;18.80;;;14.30;;
739;SDS011;354;42.694;23.336;2022-12-18T10:37:20;18.03;;;14.37;;
739;SDS011;354;42.694;23.336;2022-12-18T10:40:07;17.50;;;14.63;;
739;SDS011;354;42.694;23.336;2022-12-18T10:42:36;21.40;;;17.63;;
739;SDS011;354;42.694;23.336;2022-12-18T10:45:03;19.70;;;15.17;;
739;SDS011;354;42.694;23.336;2022-12-18T10:47:41;20.90;;;14.43;;
739;SDS011;354;42.694;23.336;2022-12-18T10:50:26;21.40;;;16.23;;
739;SDS011;354;42.694;23.336;2022-12-18T10:52:59;21.93;;;16.37;;
739;SDS011;354;42.694;23.336;2022-12-18T10:55:27;24.17;;;16.33;;
739;SDS011;354;42.694;23.336;2022-12-18T11:03:39;20.07;;;13.97;;
739;SDS011;354;42.694;23.336;2022-12-18T11:06:23;21.73;;;16.60;;
739;SDS011;354;42.694;23.336;2022-12-18T11:09:00;20.93;;;15.00;;
739;SDS011;354;42.694;23.336;2022-12-18T11:11:51;19.53;;;15.13;;
739;SDS011;354;42.694;23.336;2022-12-18T11:14:23;21.10;;;15.43;;
739;SDS011;354;42.694;23.336;2022-12-18T11:16:51;17.83;;;14.43;;
739;SDS011;354;42.694;23.336;2022-12-18T11:19:37;19.63;;;16.30;;
739;SDS011;354;42.694;23.336;2022-12-18T11:22:21;19.03;;;15.90;;
739;SDS011;354;42.694;23.336;2022-12-18T11:25:04;17.63;;;13.33;;
739;SDS011;354;42.694;23.336;2022-12-18T11:27:47;21.37;;;16.20;;
739;SDS011;354;42.694;23.336;2022-12-18T11:30:28;21.50;;;16.83;;
739;SDS011;354;42.694;23.336;2022-12-18T11:35:53;21.43;;;15.57;;
739;SDS011;354;42.694;23.336;2022-12-18T11:44:01;19.03;;;15.53;;
739;SDS011;354;42.694;23.336;2022-12-18T11:46:36;19.30;;;15.60;;
739;SDS011;354;42.694;23.336;2022-12-18T11:49:12;20.33;;;16.63;;
739;SDS011;354;42.694;23.336;2022-12-18T11:52:07;21.83;;;15.10;;
739;SDS011;354;42.694;23.336;2022-12-18T11:54:42;18.17;;;15.03;;
739;SDS011;354;42.694;23.336;2022-12-18T12:13:34;24.73;;;17.57;;
739;SDS011;354;42.694;23.336;2022-12-18T12:16:10;24.23;;;18.63;;
739;SDS011;354;42.694;23.336;2022-12-18T12:21:48;23.13;;;17.30;;
739;SDS011;354;42.694;23.336;2022-12-18T12:27:15;25.30;;;17.07;;
739;SDS011;354;42.694;23.336;2022-12-18T12:35:04;19.67;;;15.73;;
739;SDS011;354;42.694;23.336;2022-12-18T12:37:49;24.73;;;16.23;;
739;SDS011;354;42.694;23.336;2022-12-18T12:40:20;24.80;;;16.03;;
739;SDS011;354;42.694;23.336;2022-12-18T12:42:52;18.97;;;15.30;;
739;SDS011;354;42.694;23.336;2022-12-18T12:45:45;23.77;;;16.17;;
739;SDS011;354;42.694;23.336;2022-12-18T12:48:26;23.83;;;16.40;;
739;SDS011;354;42.694;23.336;2022-12-18T12:51:02;20.50;;;16.87;;
739;SDS011;354;42.694;23.336;2022-12-18T12:53:41;21.77;;;17.30;;
739;SDS011;354;42.694;23.336;2022-12-18T12:56:07;22.43;;;16.97;;
739;SDS011;354;42.694;23.336;2022-12-18T13:02:15;21.90;;;16.30;;
739;SDS011;354;42.694;23.336;2022-12-18T13:04:57;20.50;;;16.20;;
739;SDS011;354;42.694;23.336;2022-12-18T13:10:26;26.23;;;18.60;;
739;SDS011;354;42.694;23.336;2022-12-18T13:20:40;21.87;;;16.17;;
739;SDS011;354;42.694;23.336;2022-12-18T13:23:39;20.43;;;16.70;;
739;SDS011;354;42.694;23.336;2022-12-18T13:26:00;24.40;;;17.87;;
739;SDS011;354;42.694;23.336;2022-12-18T13:31:10;22.60;;;16.37;;
739;SDS011;354;42.694;23.336;2022-12-18T13:33:43;22.60;;;17.20;;
739;SDS011;354;42.694;23.336;2022-12-18T13:38:47;22.37;;;16.30;;
739;SDS011;354;42.694;23.336;2022-12-18T13:41:32;22.77;;;17.30;;
739;SDS011;354;42.694;23.336;2022-12-18T13:44:23;28.70;;;17.93;;
739;SDS011;354;42.694;23.336;2022-12-18T13:46:55;20.83;;;17.17;;
739;SDS011;354;42.694;23.336;2022-12-18T13:49:27;24.23;;;16.97;;
739;SDS011;354;42.694;23.336;2022-12-18T13:52:02;31.23;;;22.80;;
739;SDS011;354;42.694;23.336;2022-12-18T13:54:40;22.60;;;16.40;;
739;SDS011;354;42.694;23.336;2022-12-18T13:57:30;19.63;;;15.40;;
739;SDS011;354;42.694;23.336;2022-12-18T13:59:58;22.33;;;17.70;;
739;SDS011;354;42.694;23.336;2022-12-18T14:02:44;20.60;;;16.73;;
739;SDS011;354;42.694;23.336;2022-12-18T14:05:21;19.90;;;16.13;;
739;SDS011;354;42.694;23.336;2022-12-18T14:08:05;19.93;;;16.67;;
739;SDS011;354;42.694;23.336;2022-12-18T14:10:33;23.03;;;16.17;;
739;SDS011;354;42.694;23.336;2022-12-18T14:12:59;21.87;;;16.73;;
739;SDS011;354;42.694;23.336;2022-12-18T14:15:31;20.33;;;16.10;;
739;SDS011;354;42.694;23.336;2022-12-18T14:18:03;20.97;;;15.63;;
739;SDS011;354;42.694;23.336;2022-12-18T14:20:34;22.00;;;15.23;;
739;SDS011;354;42.694;23.336;2022-12-18T14:22:59;18.43;;;14.50;;
739;SDS011;354;42.694;23.336;2022-12-18T14:25:29;20.50;;;15.43;;
739;SDS011;354;42.694;23.336;2022-12-18T14:28:02;18.10;;;15.17;;
739;SDS011;354;42.694;23.336;2022-12-18T14:30:35;22.10;;;15.60;;
739;SDS011;354;42.694;23.336;2022-12-18T14:33:09;19.37;;;15.13;;
739;SDS011;354;42.694;23.336;2022-12-18T14:35:38;20.40;;;15.33;;
739;SDS011;354;42.694;23.336;2022-12-18T14:38:24;17.87;;;13.33;;
739;SDS011;354;42.694;23.336;2022-12-18T14:40:54;17.90;;;14.07;;
739;SDS011;354;42.694;23.336;2022-12-18T14:43:25;18.37;;;13.20;;
739;SDS011;354;42.694;23.336;2022-12-18T14:45:52;17.63;;;14.07;;
739;SDS011;354;42.694;23.336;2022-12-18T14:48:20;17.90;;;13.63;;
739;SDS011;354;42.694;23.336;2022-12-18T14:50:56;15.37;;;13.77;;
739;SDS011;354;42.694;23.336;2022-12-18T14:53:48;17.97;;;14.90;;
739;SDS011;354;42.694;23.336;2022-12-18T14:58:48;20.03;;;15.20;;
739;SDS011;354;42.694;23.336;2022-12-18T15:03:57;15.83;;;12.67;;
739;SDS011;354;42.694;23.336;2022-12-18T15:06:28;16.63;;;13.00;;
739;SDS011;354;42.694;23.336;2022-12-18T15:08:56;16.10;;;13.47;;
739;SDS011;354;42.694;23.336;2022-12-18T15:11:31;16.43;;;12.53;;
739;SDS011;354;42.694;23.336;2022-12-18T15:16:54;18.67;;;14.63;;
739;SDS011;354;42.694;23.336;2022-12-18T15:19:20;16.40;;;13.57;;
739;SDS011;354;42.694;23.336;2022-12-18T15:21:50;20.53;;;14.20;;
739;SDS011;354;42.694;23.336;2022-12-18T15:24:20;18.00;;;13.70;;
739;SDS011;354;42.694;23.336;2022-12-18T15:26:51;17.57;;;13.87;;
739;SDS011;354;42.694;23.336;2022-12-18T15:29:22;17.73;;;13.73;;
739;SDS011;354;42.694;23.336;2022-12-18T15:31:58;19.53;;;14.80;;
739;SDS011;354;42.694;23.336;2022-12-18T15:34:25;19.27;;;15.90;;
739;SDS011;354;42.694;23.336;2022-12-18T15:36:51;19.40;;;13.93;;
739;SDS011;354;42.694;23.336;2022-12-18T15:39:17;19.27;;;15.27;;
739;SDS011;354;42.694;23.336;2022-12-18T15:41:42;17.20;;;14.43;;
739;SDS011;354;42.694;23.336;2022-12-18T15:44:28;18.00;;;14.97;;
739;SDS011;354;42.694;23.336;2022-12-18T15:46:56;17.50;;;15.20;;
739;SDS011;354;42.694;23.336;2022-12-18T15:49:22;20.13;;;15.63;;
739;SDS011;354;42.694;23.336;2022-12-18T15:51:49;15.80;;;13.07;;
739;SDS011;354;42.694;23.336;2022-12-18T15:54:18;18.37;;;15.67;;
739;SDS011;354;42.694;23.336;2022-12-18T15:57:04;21.50;;;15.03;;
739;SDS011;354;42.694;23.336;2022-12-18T15:59:47;19.80;;;15.17;;
739;SDS011;354;42.694;23.336;2022-12-18T16:02:14;20.20;;;15.30;;
739;SDS011;354;42.694;23.336;2022-12-18T16:04:42;18.83;;;16.13;;
739;SDS011;354;42.694;23.336;2022-12-18T16:07:08;24.03;;;16.90;;
739;SDS011;354;42.694;23.336;2022-12-18T16:09:34;15.83;;;13.47;;
739;SDS011;354;42.694;23.336;2022-12-18T16:11:59;20.60;;;15.80;;
739;SDS011;354;42.694;23.336;2022-12-18T16:14:26;20.67;;;15.33;;
739;SDS011;354;42.694;23.336;2022-12-18T16:16:57;19.70;;;14.63;;
739;SDS011;354;42.694;23.336;2022-12-18T16:19:31;22.43;;;17.33;;
739;SDS011;354;42.694;23.336;2022-12-18T16:21:57;24.70;;;16.73;;
739;SDS011;354;42.694;23.336;2022-12-18T16:24:24;19.57;;;15.37;;
739;SDS011;354;42.694;23.336;2022-12-18T16:26:51;20.30;;;15.37;;
739;SDS011;354;42.694;23.336;2022-12-18T16:29:18;21.70;;;15.37;;
739;SDS011;354;42.694;23.336;2022-12-18T16:31:52;20.23;;;15.50;;
739;SDS011;354;42.694;23.336;2022-12-18T16:34:19;20.67;;;17.03;;
739;SDS011;354;42.694;23.336;2022-12-18T16:36:50;21.07;;;15.73;;
739;SDS011;354;42.694;23.336;2022-12-18T16:39:16;20.30;;;15.00;;
739;SDS011;354;42.694;23.336;2022-12-18T16:41:42;19.67;;;15.60;;
739;SDS011;354;42.694;23.336;2022-12-18T16:44:08;21.17;;;17.00;;
739;SDS011;354;42.694;23.336;2022-12-18T16:46:34;21.03;;;16.20;;
739;SDS011;354;42.694;23.336;2022-12-18T16:48:59;21.17;;;17.00;;
739;SDS011;354;42.694;23.336;2022-12-18T16:51:25;23.03;;;17.23;;
739;SDS011;354;42.694;23.336;2022-12-18T16:53:55;20.23;;;15.67;;
739;SDS011;354;42.694;23.336;2022-12-18T16:56:24;19.57;;;16.97;;
739;SDS011;354;42.694;23.336;2022-12-18T16:58:50;23.27;;;16.90;;